createdAt,value
2018-12-24T00:01:11.742Z,99.90
2018-12-24T00:03:57.552Z,99.90
2018-12-24T00:06:42.619Z,99.90
2018-12-24T00:09:31.591Z,99.90
2018-12-24T00:12:17.013Z,99.90
2018-12-24T00:15:02.052Z,99.90
2018-12-24T00:17:47.323Z,99.90
2018-12-24T00:20:34.788Z,99.90
2018-12-24T00:23:23.896Z,99.90
2018-12-24T00:26:09.835Z,99.90
2018-12-24T00:28:59.405Z,99.90
2018-12-24T00:31:45.075Z,99.90
2018-12-24T00:34:30.041Z,99.90
2018-12-24T00:37:15.948Z,99.90
2018-12-24T00:40:01.454Z,99.90
2018-12-24T00:42:47.010Z,99.90
2018-12-24T00:45:32.337Z,99.90
2018-12-24T00:48:18.702Z,99.90
2018-12-24T00:51:04.829Z,99.90
2018-12-24T00:59:25.356Z,99.90
2018-12-24T01:02:02.213Z,99.90
2018-12-24T01:04:47.562Z,99.90
2018-12-24T01:07:33.303Z,99.90
2018-12-24T01:10:20.365Z,99.90
2018-12-24T01:13:05.826Z,99.90
2018-12-24T01:15:52.868Z,99.90
2018-12-24T01:18:39.247Z,99.90
2018-12-24T01:21:24.940Z,99.90
2018-12-24T01:24:10.123Z,99.90
2018-12-24T01:26:56.058Z,99.90
2018-12-24T01:32:40.274Z,99.90
2018-12-24T01:35:27.860Z,99.90
2018-12-24T01:38:14.069Z,99.90
2018-12-24T01:41:04.964Z,99.90
2018-12-24T01:43:54.304Z,99.90
2018-12-24T01:46:39.545Z,99.90
2018-12-24T01:49:26.991Z,99.90
2018-12-24T01:52:12.700Z,99.90
2018-12-24T01:54:59.976Z,99.90
2018-12-24T01:57:45.267Z,99.90
2018-12-24T02:03:21.215Z,99.90
2018-12-24T02:06:08.041Z,99.90
2018-12-24T02:08:53.710Z,99.90
2018-12-24T02:11:38.792Z,99.90
2018-12-24T02:14:24.065Z,99.90
2018-12-24T02:17:09.443Z,99.90
2018-12-24T02:19:55.720Z,99.90
2018-12-24T02:22:41.382Z,99.90
2018-12-24T02:25:28.265Z,99.90
2018-12-24T02:28:14.389Z,99.90
2018-12-24T02:33:53.598Z,99.90
2018-12-24T02:36:39.036Z,99.90
2018-12-24T02:39:24.733Z,99.90
2018-12-24T02:42:10.425Z,99.90
2018-12-24T02:44:55.602Z,99.90
2018-12-24T02:47:41.445Z,99.90
2018-12-24T02:50:28.435Z,99.90
2018-12-24T02:53:14.578Z,99.90
2018-12-24T02:56:00.393Z,99.90
2018-12-24T02:58:47.653Z,99.90
2018-12-24T03:01:37.269Z,99.90
2018-12-24T03:04:28.521Z,99.90
2018-12-24T03:07:13.471Z,99.90
2018-12-24T03:09:58.686Z,99.90
2018-12-24T03:12:44.501Z,99.90
2018-12-24T03:15:30.079Z,99.90
2018-12-24T03:18:15.930Z,99.90
2018-12-24T03:21:05.983Z,99.90
2018-12-24T03:23:52.692Z,99.90
2018-12-24T03:26:39.400Z,99.90
2018-12-24T03:32:10.696Z,99.90
2018-12-24T03:34:56.699Z,99.90
2018-12-24T03:37:47.301Z,99.90
2018-12-24T03:40:33.230Z,99.90
2018-12-24T03:43:20.597Z,99.90
2018-12-24T03:46:09.109Z,99.90
2018-12-24T03:48:54.732Z,99.90
2018-12-24T03:51:40.383Z,99.90
2018-12-24T03:54:27.634Z,99.90
2018-12-24T03:57:15.328Z,99.90
2018-12-24T04:00:01.249Z,99.90
2018-12-24T04:02:47.528Z,99.90
2018-12-24T04:05:35.061Z,99.90
2018-12-24T04:08:20.884Z,99.90
2018-12-24T04:11:09.939Z,99.90
2018-12-24T04:14:01.322Z,99.90
2018-12-24T04:16:48.614Z,99.90
2018-12-24T04:19:36.095Z,99.90
2018-12-24T04:22:22.298Z,99.90
2018-12-24T04:25:08.209Z,99.90
2018-12-24T04:27:54.057Z,99.90
2018-12-24T04:33:24.611Z,99.90
2018-12-24T04:36:11.335Z,99.90
2018-12-24T04:38:56.791Z,99.90
2018-12-24T04:41:42.069Z,99.90
2018-12-24T04:44:29.588Z,99.90
2018-12-24T04:50:14.035Z,99.90
2018-12-24T04:53:03.623Z,99.90
2018-12-24T04:55:50.642Z,99.90
2018-12-24T04:58:35.718Z,99.90
2018-12-24T05:04:06.726Z,99.90
2018-12-24T05:06:53.331Z,99.90
2018-12-24T05:09:37.872Z,99.90
2018-12-24T05:12:23.152Z,99.90
2018-12-24T05:15:10.791Z,99.90
2018-12-24T05:18:18.427Z,99.90
2018-12-24T05:21:07.964Z,99.90
2018-12-24T05:23:57.353Z,99.90
2018-12-24T05:26:43.349Z,99.90
2018-12-24T05:29:30.656Z,99.90
2018-12-24T05:32:16.668Z,99.90
2018-12-24T05:35:01.917Z,99.90
2018-12-24T05:37:49.471Z,99.90
2018-12-24T05:40:37.510Z,99.90
2018-12-24T05:43:24.089Z,99.90
2018-12-24T05:46:09.781Z,99.90
2018-12-24T05:48:59.379Z,99.90
2018-12-24T05:51:45.188Z,99.90
2018-12-24T05:54:31.027Z,99.90
2018-12-24T05:57:22.455Z,99.90
2018-12-24T06:00:08.759Z,99.90
2018-12-24T06:02:54.138Z,99.90
2018-12-24T06:09:02.771Z,99.90
2018-12-24T06:11:48.142Z,99.90
2018-12-24T06:14:38.030Z,99.90
2018-12-24T06:17:23.483Z,99.90
2018-12-24T06:20:08.225Z,99.90
2018-12-24T06:22:53.760Z,99.90
2018-12-24T06:25:39.682Z,99.90
2018-12-24T06:28:25.616Z,99.90
2018-12-24T06:34:00.703Z,99.90
2018-12-24T06:39:38.473Z,99.90
2018-12-24T06:42:24.710Z,99.90
2018-12-24T06:45:10.185Z,99.90
2018-12-24T06:47:55.293Z,99.90
2018-12-24T06:53:29.277Z,99.90
2018-12-24T06:56:15.466Z,99.90
2018-12-24T07:01:48.445Z,99.90
2018-12-24T07:04:34.178Z,99.90
2018-12-24T07:07:18.564Z,99.90
2018-12-24T07:10:04.415Z,99.90
2018-12-24T07:12:52.923Z,99.90
2018-12-24T07:15:41.315Z,99.90
2018-12-24T07:18:25.770Z,99.90
2018-12-24T07:21:10.796Z,99.90
2018-12-24T07:24:01.437Z,99.90
2018-12-24T07:26:48.746Z,99.90
2018-12-24T07:29:23.558Z,99.90
2018-12-24T07:32:07.722Z,99.90
2018-12-24T07:34:54.904Z,99.90
2018-12-24T07:37:41.508Z,99.90
2018-12-24T07:40:27.716Z,99.90
2018-12-24T07:43:15.024Z,99.90
2018-12-24T07:46:01.699Z,99.90
2018-12-24T07:48:46.925Z,99.90
2018-12-24T07:51:32.042Z,99.90
2018-12-24T07:54:22.416Z,99.90
2018-12-24T07:57:07.356Z,99.90
2018-12-24T07:59:55.884Z,99.90
2018-12-24T08:02:41.107Z,99.90
2018-12-24T08:05:25.467Z,99.90
2018-12-24T08:08:11.761Z,99.90
2018-12-24T08:10:59.088Z,99.90
2018-12-24T08:13:45.148Z,99.90
2018-12-24T08:17:05.921Z,99.90
2018-12-24T08:19:33.603Z,99.60
2018-12-24T08:22:20.933Z,98.60
2018-12-24T08:25:06.501Z,98.50
2018-12-24T08:27:51.589Z,97.00
2018-12-24T08:30:38.104Z,97.10
2018-12-24T08:33:26.647Z,97.50
2018-12-24T08:36:19.582Z,96.70
2018-12-24T08:39:05.177Z,96.80
2018-12-24T08:41:51.765Z,96.70
2018-12-24T08:47:32.251Z,96.80
2018-12-24T08:53:05.316Z,96.50
2018-12-24T09:01:23.463Z,96.10
2018-12-24T09:03:59.254Z,96.70
2018-12-24T09:06:44.050Z,96.80
2018-12-24T09:12:31.465Z,96.00
2018-12-24T09:15:16.977Z,95.60
2018-12-24T09:18:06.560Z,94.40
2018-12-24T09:20:52.715Z,94.90
2018-12-24T09:23:42.468Z,94.60
2018-12-24T09:26:27.723Z,95.00
2018-12-24T09:29:16.306Z,95.10
2018-12-24T09:32:06.061Z,95.10
2018-12-24T09:34:51.415Z,94.50
2018-12-24T09:37:37.589Z,95.10
2018-12-24T09:40:25.275Z,95.00
2018-12-24T09:43:10.141Z,93.90
2018-12-24T09:48:56.048Z,92.60
2018-12-24T09:51:45.430Z,92.80
2018-12-24T09:54:31.041Z,92.90
2018-12-24T09:57:17.877Z,92.00
2018-12-24T10:03:04.867Z,90.90
2018-12-24T10:05:50.927Z,91.40
2018-12-24T10:08:36.509Z,91.30
2018-12-24T10:11:25.815Z,90.80
2018-12-24T10:14:14.962Z,90.60
2018-12-24T10:17:00.672Z,89.80
2018-12-24T10:19:35.345Z,89.50
2018-12-24T10:22:09.758Z,89.80
2018-12-24T10:24:43.910Z,88.50
2018-12-24T10:27:18.709Z,89.30
2018-12-24T10:29:52.962Z,88.60
2018-12-24T10:32:27.440Z,87.70
2018-12-24T10:35:03.322Z,87.10
2018-12-24T10:37:38.839Z,86.80
2018-12-24T10:40:17.762Z,86.60
2018-12-24T10:42:52.385Z,87.00
2018-12-24T10:45:31.447Z,87.10
2018-12-24T10:48:06.089Z,87.20
2018-12-24T10:50:47.558Z,86.70
2018-12-24T10:53:22.109Z,87.40
2018-12-24T10:55:57.724Z,87.30
2018-12-24T10:58:33.997Z,87.10
2018-12-24T11:01:10.390Z,87.40
2018-12-24T11:03:47.778Z,87.60
2018-12-24T11:06:23.849Z,87.60
2018-12-24T11:09:03.704Z,87.50
2018-12-24T11:11:42.463Z,87.10
2018-12-24T11:14:17.767Z,87.60
2018-12-24T11:16:52.535Z,87.10
2018-12-24T11:19:27.469Z,86.60
2018-12-24T11:22:04.802Z,85.50
2018-12-24T11:24:41.541Z,84.40
2018-12-24T11:27:16.810Z,85.60
2018-12-24T11:29:53.139Z,84.10
2018-12-24T11:32:29.702Z,82.60
2018-12-24T11:35:06.284Z,77.60
2018-12-24T11:37:45.650Z,74.30
2018-12-24T11:40:25.111Z,73.00
2018-12-24T11:43:02.029Z,72.40
2018-12-24T11:45:39.675Z,71.80
2018-12-24T11:48:32.172Z,70.50
2018-12-24T11:51:17.338Z,71.70
2018-12-24T11:53:52.672Z,71.10
2018-12-24T11:56:27.510Z,70.60
2018-12-24T11:59:03.119Z,70.60
2018-12-24T12:01:38.753Z,68.80
2018-12-24T12:04:15.267Z,68.50
2018-12-24T12:06:51.383Z,68.10
2018-12-24T12:09:28.756Z,69.40
2018-12-24T12:12:02.593Z,69.40
2018-12-24T12:14:37.029Z,69.40
2018-12-24T12:17:12.928Z,69.70
2018-12-24T12:19:49.663Z,71.90
2018-12-24T12:22:26.849Z,75.70
2018-12-24T12:25:00.975Z,76.70
2018-12-24T12:27:35.962Z,75.20
2018-12-24T12:30:12.119Z,73.50
2018-12-24T12:32:46.940Z,72.00
2018-12-24T12:35:21.772Z,71.20
2018-12-24T12:37:55.661Z,71.60
2018-12-24T12:40:32.760Z,72.20
2018-12-24T12:43:10.661Z,72.10
2018-12-24T12:45:55.500Z,70.60
2018-12-24T12:48:31.843Z,70.40
2018-12-24T12:51:07.876Z,71.00
2018-12-24T12:53:42.218Z,71.50
2018-12-24T12:56:17.075Z,72.20
2018-12-24T12:58:54.624Z,74.10
2018-12-24T13:01:29.300Z,75.90
2018-12-24T13:04:05.947Z,77.70
2018-12-24T13:06:40.521Z,77.30
2018-12-24T13:09:15.712Z,75.40
2018-12-24T13:11:53.706Z,75.40
2018-12-24T13:14:31.218Z,77.40
2018-12-24T13:17:06.586Z,79.20
2018-12-24T13:19:41.882Z,80.40
2018-12-24T13:22:16.548Z,79.90
2018-12-24T13:24:51.625Z,77.60
2018-12-24T13:27:27.184Z,74.90
2018-12-24T13:30:01.627Z,73.10
2018-12-24T13:32:36.599Z,71.60
2018-12-24T13:35:11.728Z,70.30
2018-12-24T13:37:52.876Z,70.90
2018-12-24T13:40:28.936Z,73.90
2018-12-24T13:43:04.943Z,75.30
2018-12-24T13:45:43.094Z,75.30
2018-12-24T13:48:23.971Z,74.50
2018-12-24T13:51:00.688Z,76.10
2018-12-24T13:53:42.055Z,77.50
2018-12-24T13:56:18.577Z,79.60
2018-12-24T13:58:55.976Z,81.00
2018-12-24T14:01:33.327Z,81.80
2018-12-24T14:04:11.790Z,82.80
2018-12-24T14:06:48.577Z,83.10
2018-12-24T14:09:25.115Z,83.80
2018-12-24T14:12:01.202Z,84.10
2018-12-24T14:14:35.621Z,85.00
2018-12-24T14:17:09.954Z,85.30
2018-12-24T14:19:49.999Z,85.10
2018-12-24T14:22:26.683Z,84.80
2018-12-24T14:25:01.656Z,83.90
2018-12-24T14:27:36.371Z,83.40
2018-12-24T14:30:11.563Z,82.60
2018-12-24T14:32:46.968Z,81.70
2018-12-24T14:35:24.790Z,81.80
2018-12-24T14:38:05.573Z,80.50
2018-12-24T14:40:42.490Z,80.80
2018-12-24T14:43:20.061Z,81.60
2018-12-24T14:45:58.334Z,82.90
2018-12-24T14:48:37.431Z,83.10
2018-12-24T14:51:17.262Z,82.60
2018-12-24T14:53:55.195Z,83.00
2018-12-24T14:56:32.858Z,83.80
2018-12-24T14:59:09.514Z,84.40
2018-12-24T15:01:44.580Z,85.30
2018-12-24T15:04:19.053Z,86.30
2018-12-24T15:06:54.324Z,86.80
2018-12-24T15:09:28.812Z,87.90
2018-12-24T15:12:04.203Z,88.60
2018-12-24T15:14:40.363Z,88.90
2018-12-24T15:17:15.593Z,89.90
2018-12-24T15:19:52.742Z,90.70
2018-12-24T15:22:28.193Z,91.30
2018-12-24T15:25:03.143Z,91.70
2018-12-24T15:27:37.784Z,92.40
2018-12-24T15:30:12.425Z,93.20
2018-12-24T15:32:46.841Z,93.60
2018-12-24T15:35:22.036Z,93.90
2018-12-24T15:37:56.487Z,94.40
2018-12-24T15:40:31.227Z,95.10
2018-12-24T15:43:06.456Z,95.80
2018-12-24T15:45:41.326Z,95.90
2018-12-24T15:48:15.820Z,96.20
2018-12-24T15:50:50.521Z,96.60
2018-12-24T15:53:24.548Z,97.60
2018-12-24T15:55:59.628Z,98.10
2018-12-24T15:58:35.080Z,98.70
2018-12-24T16:01:11.247Z,99.40
2018-12-24T16:03:45.913Z,99.50
2018-12-24T16:06:20.453Z,99.60
2018-12-24T16:08:55.197Z,99.80
2018-12-24T16:11:28.548Z,99.90
2018-12-24T16:14:04.271Z,99.90
2018-12-24T16:16:39.279Z,99.90
2018-12-24T16:19:13.597Z,99.90
2018-12-24T16:21:47.071Z,99.90
2018-12-24T16:24:21.092Z,99.90
2018-12-24T16:27:01.139Z,99.90
2018-12-24T16:29:42.952Z,99.90
2018-12-24T16:32:17.659Z,99.90
2018-12-24T16:34:52.587Z,99.90
2018-12-24T16:37:26.996Z,99.90
2018-12-24T16:40:04.171Z,99.90
2018-12-24T16:42:38.557Z,99.90
2018-12-24T16:45:13.331Z,99.90
2018-12-24T16:47:47.940Z,99.90
2018-12-24T16:50:22.474Z,99.90
2018-12-24T16:52:56.703Z,99.90
2018-12-24T16:55:31.478Z,99.90
2018-12-24T16:58:06.073Z,99.90
2018-12-24T17:00:40.693Z,99.90
2018-12-24T17:03:15.725Z,99.90
2018-12-24T17:05:50.591Z,99.90
2018-12-24T17:08:25.542Z,99.90
2018-12-24T17:11:03.947Z,99.90
2018-12-24T17:13:43.347Z,99.90
2018-12-24T17:16:20.338Z,99.90
2018-12-24T17:18:56.340Z,99.90
2018-12-24T17:21:30.635Z,99.90
2018-12-24T17:24:07.726Z,99.90
2018-12-24T17:26:52.342Z,99.90
2018-12-24T17:29:31.658Z,99.90
2018-12-24T17:32:10.276Z,99.90
2018-12-24T17:34:51.536Z,99.90
2018-12-24T17:37:28.027Z,99.90
2018-12-24T17:40:06.124Z,99.90
2018-12-24T17:42:42.595Z,99.90
2018-12-24T17:45:42.520Z,99.90
2018-12-24T17:48:17.449Z,99.90
2018-12-24T17:50:52.209Z,99.90
2018-12-24T17:53:27.753Z,99.90
2018-12-24T17:56:05.225Z,99.90
2018-12-24T17:58:41.356Z,99.90
2018-12-24T18:01:15.916Z,99.90
2018-12-24T18:03:50.522Z,99.90
2018-12-24T18:06:25.248Z,99.90
2018-12-24T18:09:01.144Z,99.90
2018-12-24T18:11:37.254Z,99.90
2018-12-24T18:14:13.783Z,99.90
2018-12-24T18:16:48.898Z,99.90
2018-12-24T18:19:23.886Z,99.90
2018-12-24T18:21:58.417Z,99.90
2018-12-24T18:24:32.550Z,99.90
2018-12-24T18:27:08.922Z,99.90
2018-12-24T18:29:43.342Z,99.90
2018-12-24T18:32:17.519Z,99.90
2018-12-24T18:34:52.125Z,99.90
2018-12-24T18:37:26.530Z,99.90
2018-12-24T18:40:00.351Z,99.90
2018-12-24T18:42:37.042Z,99.90
2018-12-24T18:45:11.477Z,99.90
2018-12-24T18:47:46.579Z,99.90
2018-12-24T18:50:22.777Z,99.90
2018-12-24T18:52:56.786Z,99.90
2018-12-24T18:55:31.672Z,99.90
2018-12-24T18:58:06.562Z,99.90
2018-12-24T19:00:43.351Z,99.90
2018-12-24T19:03:19.318Z,99.90
2018-12-24T19:05:53.457Z,99.90
2018-12-24T19:08:29.732Z,99.90
2018-12-24T19:11:05.264Z,99.90
2018-12-24T19:13:40.790Z,99.90
2018-12-24T19:16:16.619Z,99.90
2018-12-24T19:19:01.492Z,99.90
2018-12-24T19:21:43.756Z,99.90
2018-12-24T19:24:11.527Z,99.90
2018-12-24T19:26:45.473Z,99.90
2018-12-24T19:29:19.795Z,99.90
2018-12-24T19:31:55.746Z,99.90
2018-12-24T19:34:30.674Z,99.90
2018-12-24T19:37:04.907Z,99.90
2018-12-24T19:39:40.463Z,99.90
2018-12-24T19:42:18.534Z,99.90
2018-12-24T19:44:53.450Z,99.90
2018-12-24T19:47:28.184Z,99.90
2018-12-24T19:50:03.247Z,99.90
2018-12-24T19:52:40.527Z,99.90
2018-12-24T19:55:17.912Z,99.90
2018-12-24T19:57:52.781Z,99.90
2018-12-24T20:00:28.000Z,99.90
2018-12-24T20:03:02.734Z,99.90
2018-12-24T20:05:38.877Z,99.90
2018-12-24T20:08:12.880Z,99.90
2018-12-24T20:10:46.509Z,99.90
2018-12-24T20:13:21.411Z,99.90
2018-12-24T20:16:01.993Z,99.90
2018-12-24T20:18:36.232Z,99.90
2018-12-24T20:21:09.817Z,99.90
2018-12-24T20:23:43.957Z,99.90
2018-12-24T20:26:18.708Z,99.90
2018-12-24T20:28:52.920Z,99.90
2018-12-24T20:31:25.938Z,99.90
2018-12-24T20:34:01.111Z,99.90
2018-12-24T20:36:34.008Z,99.90
2018-12-24T20:39:11.337Z,99.90
2018-12-24T20:41:44.590Z,99.90
2018-12-24T20:44:20.550Z,99.90
2018-12-24T20:47:04.876Z,99.90
2018-12-24T20:49:38.579Z,99.90
2018-12-24T20:52:15.465Z,99.90
2018-12-24T20:54:51.886Z,99.90
2018-12-24T20:57:25.935Z,99.90
2018-12-24T20:59:59.861Z,99.90
2018-12-24T21:02:33.147Z,99.90
2018-12-24T21:05:06.812Z,99.90
2018-12-24T21:07:40.973Z,99.90
2018-12-24T21:10:14.025Z,99.90
2018-12-24T21:12:46.882Z,99.90
2018-12-24T21:15:20.666Z,99.90
2018-12-24T21:17:54.227Z,99.90
2018-12-24T21:20:28.686Z,99.90
2018-12-24T21:23:02.540Z,99.90
2018-12-24T21:25:41.760Z,99.90
2018-12-24T21:28:17.366Z,99.90
2018-12-24T21:30:53.073Z,99.90
2018-12-24T21:33:26.594Z,99.90
2018-12-24T21:36:01.242Z,99.90
2018-12-24T21:38:36.512Z,99.90
2018-12-24T21:41:11.422Z,99.90
2018-12-24T21:43:50.651Z,99.90
2018-12-24T21:46:24.912Z,99.90
2018-12-24T21:48:58.573Z,99.90
2018-12-24T21:51:31.636Z,99.90
2018-12-24T21:54:05.591Z,99.90
2018-12-24T21:56:40.376Z,99.90
2018-12-24T21:59:19.719Z,99.90
2018-12-24T22:01:53.612Z,99.90
2018-12-24T22:04:27.908Z,99.90
2018-12-24T22:07:05.082Z,99.90
2018-12-24T22:09:39.720Z,99.90
2018-12-24T22:12:14.232Z,99.90
2018-12-24T22:14:47.721Z,99.90
2018-12-24T22:17:23.386Z,99.90
2018-12-24T22:20:01.281Z,99.90
2018-12-24T22:22:37.419Z,99.90
2018-12-24T22:25:13.256Z,99.90
2018-12-24T22:27:47.720Z,99.90
2018-12-24T22:30:22.627Z,99.90
2018-12-24T22:32:58.898Z,99.90
2018-12-24T22:35:37.070Z,99.90
2018-12-24T22:38:17.373Z,99.90
2018-12-24T22:41:16.752Z,99.90
2018-12-24T22:43:50.883Z,99.90
2018-12-24T22:46:26.159Z,99.90
2018-12-24T22:49:04.242Z,99.90
2018-12-24T22:51:38.018Z,99.90
2018-12-24T22:54:11.511Z,99.90
2018-12-24T22:56:45.917Z,99.90
2018-12-24T22:59:20.003Z,99.90
2018-12-24T23:01:56.726Z,99.90
2018-12-24T23:04:30.692Z,99.90
2018-12-24T23:07:14.165Z,99.80
2018-12-24T23:09:48.050Z,99.60
2018-12-24T23:12:24.416Z,99.60
2018-12-24T23:15:03.321Z,99.60
2018-12-24T23:17:39.511Z,99.60
2018-12-24T23:20:24.758Z,99.90
2018-12-24T23:23:02.032Z,99.90
2018-12-24T23:25:40.975Z,99.90
2018-12-24T23:28:26.125Z,99.70
2018-12-24T23:31:06.019Z,99.70
2018-12-24T23:33:43.250Z,99.60
2018-12-24T23:36:33.601Z,99.60
2018-12-24T23:39:09.696Z,99.50
2018-12-24T23:41:48.101Z,99.60
2018-12-24T23:44:35.838Z,99.70
2018-12-24T23:47:15.229Z,99.90
2018-12-24T23:49:55.223Z,99.90
2018-12-24T23:52:30.998Z,99.90
2018-12-24T23:55:06.016Z,99.70
2018-12-24T23:57:41.333Z,99.70
